Time;durP1;ratioP1;P1;durP2;ratioP2;P2;SDS_P1;SDS_P2;PMS_P1;PMS_P2;Temp;Humidity;BMP_temperature;BMP_pressure;BME280_temperature;BME280_humidity;BME280_pressure;Samples;Min_cycle;Max_cycle;Signal;HPM_P1;HPM_P2
2021/05/02 00:02:07;;;;;;;12.70;4.82;;;;;;;;;;4996485;28;20026;-62
2021/05/02 00:04:34;;;;;;;17.13;10.27;;;;;;;;;;4996497;28;20038;-61
2021/05/02 00:07:03;;;;;;;17.88;9.68;;;;;;;;;;4996244;28;20108;-62
2021/05/02 00:09:32;;;;;;;31.50;19.25;;;;;;;;;;4996468;28;20049;-62
2021/05/02 00:11:59;;;;;;;25.67;15.13;;;;;;;;;;4996425;28;20026;-63
2021/05/02 00:14:25;;;;;;;15.65;7.50;;;;;;;;;;4996251;28;20034;-61
2021/05/02 00:16:51;;;;;;;18.52;7.65;;;;;;;;;;4995984;28;20038;-61
2021/05/02 00:19:19;;;;;;;22.65;9.32;;;;;;;;;;4996301;28;20085;-60
2021/05/02 00:21:46;;;;;;;16.63;7.85;;;;;;;;;;4996056;28;20101;-62
2021/05/02 00:24:13;;;;;;;14.18;6.57;;;;;;;;;;4995990;28;20030;-61
2021/05/02 00:26:39;;;;;;;20.98;8.73;;;;;;;;;;4995151;28;20040;-61
2021/05/02 00:29:11;;;;;;;14.30;5.93;;;;;;;;;;4996003;28;20033;-60
2021/05/02 00:31:41;;;;;;;18.92;7.38;;;;;;;;;;4996014;28;20030;-62
2021/05/02 00:34:09;;;;;;;14.20;6.32;;;;;;;;;;4996016;28;20389;-62
2021/05/02 00:36:35;;;;;;;12.77;5.88;;;;;;;;;;4996184;28;20110;-62
2021/05/02 00:39:05;;;;;;;16.13;5.13;;;;;;;;;;4995813;28;20076;-62
2021/05/02 00:41:33;;;;;;;18.73;5.83;;;;;;;;;;4995801;28;20030;-62
2021/05/02 00:44:03;;;;;;;26.38;5.43;;;;;;;;;;4995979;28;20022;-59
2021/05/02 00:46:39;;;;;;;8.52;4.70;;;;;;;;;;4995773;28;20407;-63
2021/05/02 00:49:17;;;;;;;17.33;7.28;;;;;;;;;;4995920;28;20077;-61
2021/05/02 00:51:46;;;;;;;16.77;6.72;;;;;;;;;;4995565;28;20073;-61
2021/05/02 00:54:16;;;;;;;23.23;11.82;;;;;;;;;;4995574;28;20505;-63
2021/05/02 00:56:51;;;;;;;15.65;6.72;;;;;;;;;;4995713;28;20513;-62
2021/05/02 00:59:19;;;;;;;19.25;8.93;;;;;;;;;;4995596;28;20029;-63
2021/05/02 01:01:49;;;;;;;13.63;5.13;;;;;;;;;;4995498;28;20502;-63
2021/05/02 01:04:19;;;;;;;14.45;6.07;;;;;;;;;;4995432;28;20391;-63
2021/05/02 01:06:45;;;;;;;14.30;6.70;;;;;;;;;;4995027;28;20052;-63
2021/05/02 01:09:14;;;;;;;14.10;8.50;;;;;;;;;;4995477;28;20041;-63
2021/05/02 01:11:42;;;;;;;16.35;8.32;;;;;;;;;;4995354;28;20447;-64
2021/05/02 01:14:11;;;;;;;17.80;8.82;;;;;;;;;;4995315;28;20383;-64
2021/05/02 01:16:39;;;;;;;23.40;11.95;;;;;;;;;;4995241;28;20026;-64
2021/05/02 01:19:08;;;;;;;14.00;6.40;;;;;;;;;;4995191;28;20391;-62
2021/05/02 01:21:39;;;;;;;15.43;8.95;;;;;;;;;;4995047;28;20383;-62
2021/05/02 01:24:05;;;;;;;;;;;;;;;;;;4995608;28;20022;-62
2021/05/02 01:26:31;;;;;;;30.92;18.55;;;;;;;;;;4994871;28;19917;-62
2021/05/02 01:28:58;;;;;;;13.77;7.18;;;;;;;;;;4994972;28;20022;-62
2021/05/02 01:31:24;;;;;;;16.50;8.65;;;;;;;;;;4994947;28;20026;-62
2021/05/02 01:33:51;;;;;;;10.43;6.72;;;;;;;;;;4995039;28;20030;-61
2021/05/02 01:36:17;;;;;;;10.25;5.85;;;;;;;;;;4994706;28;20065;-61
2021/05/02 01:38:43;;;;;;;20.02;13.27;;;;;;;;;;4994879;28;20102;-61
2021/05/02 01:41:12;;;;;;;20.17;13.02;;;;;;;;;;4994602;28;20029;-56
2021/05/02 01:43:38;;;;;;;28.08;17.30;;;;;;;;;;4994654;28;20022;-60
2021/05/02 01:46:06;;;;;;;17.15;7.47;;;;;;;;;;4994483;28;20056;-60
2021/05/02 01:48:33;;;;;;;19.80;12.07;;;;;;;;;;4994467;28;20511;-60
2021/05/02 01:51:05;;;;;;;17.33;11.00;;;;;;;;;;4994419;28;20375;-60
2021/05/02 01:53:32;;;;;;;13.48;7.65;;;;;;;;;;4994457;28;20030;-60
2021/05/02 01:56:00;;;;;;;14.95;7.57;;;;;;;;;;4994381;28;20505;-60
2021/05/02 01:58:27;;;;;;;10.07;4.95;;;;;;;;;;4994472;28;20467;-60
2021/05/02 02:00:55;;;;;;;11.32;5.18;;;;;;;;;;4994449;28;20022;-55
2021/05/02 02:03:22;;;;;;;11.25;5.13;;;;;;;;;;4994195;28;20081;-58
2021/05/02 02:05:48;;;;;;;9.00;4.60;;;;;;;;;;4994090;28;20018;-54
2021/05/02 02:08:15;;;;;;;8.52;5.25;;;;;;;;;;4994293;28;20034;-59
2021/05/02 02:10:41;;;;;;;11.20;4.35;;;;;;;;;;4994298;28;20077;-61
2021/05/02 02:13:12;;;;;;;8.02;3.35;;;;;;;;;;4994139;28;20022;-60
2021/05/02 02:15:38;;;;;;;8.13;3.58;;;;;;;;;;4994272;28;20054;-60
2021/05/02 02:18:05;;;;;;;7.70;2.70;;;;;;;;;;4994110;28;20027;-60
2021/05/02 02:20:35;;;;;;;5.28;2.20;;;;;;;;;;4993985;28;20410;-60
2021/05/02 02:23:07;;;;;;;8.38;3.50;;;;;;;;;;4994373;28;20425;-56
2021/05/02 02:25:35;;;;;;;6.20;2.92;;;;;;;;;;4993887;28;20114;-60
2021/05/02 02:28:03;;;;;;;6.88;2.83;;;;;;;;;;4994406;28;20062;-61
2021/05/02 02:30:30;;;;;;;4.97;3.08;;;;;;;;;;4994729;28;20478;-61
2021/05/02 02:32:58;;;;;;;5.35;2.53;;;;;;;;;;4993954;28;20034;-61
2021/05/02 02:35:25;;;;;;;5.95;2.47;;;;;;;;;;4993944;28;20042;-61
2021/05/02 02:37:54;;;;;;;5.95;2.00;;;;;;;;;;4993944;28;20105;-61
2021/05/02 02:40:23;;;;;;;4.57;1.90;;;;;;;;;;4993983;28;20087;-62
2021/05/02 02:42:50;;;;;;;5.20;2.38;;;;;;;;;;4994319;28;20077;-63
2021/05/02 02:45:17;;;;;;;5.53;1.58;;;;;;;;;;4993911;28;20114;-63
2021/05/02 02:47:51;;;;;;;4.13;1.58;;;;;;;;;;4993673;28;20519;-56
2021/05/02 02:50:18;;;;;;;3.88;1.52;;;;;;;;;;4996551;28;20026;-62
2021/05/02 02:52:55;;;;;;;4.28;1.50;;;;;;;;;;4998132;28;20105;-53
2021/05/02 02:55:22;;;;;;;6.32;1.90;;;;;;;;;;4997791;28;20026;-60
2021/05/02 02:57:56;;;;;;;3.15;1.77;;;;;;;;;;4997873;28;20085;-62
2021/05/02 03:00:23;;;;;;;3.78;1.38;;;;;;;;;;4997842;28;20022;-60
2021/05/02 03:02:55;;;;;;;3.30;1.33;;;;;;;;;;4997621;28;20018;-53
2021/05/02 03:05:23;;;;;;;5.45;1.55;;;;;;;;;;4997822;28;20022;-62
2021/05/02 03:07:51;;;;;;;4.43;1.52;;;;;;;;;;4997426;28;20125;-61
2021/05/02 03:10:17;;;;;;;4.65;1.38;;;;;;;;;;4997668;28;20030;-62
2021/05/02 03:12:44;;;;;;;3.38;1.35;;;;;;;;;;4997509;28;20031;-61
2021/05/02 03:15:11;;;;;;;3.60;1.30;;;;;;;;;;4997648;28;20036;-62
2021/05/02 03:17:37;;;;;;;3.90;1.27;;;;;;;;;;4997507;28;20030;-62
2021/05/02 03:20:07;;;;;;;2.17;1.30;;;;;;;;;;4997465;28;20023;-62
2021/05/02 03:22:39;;;;;;;3.88;1.15;;;;;;;;;;4997477;28;20026;-66
2021/05/02 03:25:09;;;;;;;7.10;1.58;;;;;;;;;;4997374;28;20422;-63
2021/05/02 03:27:37;;;;;;;6.82;1.60;;;;;;;;;;4997222;28;20045;-64
2021/05/02 03:30:07;;;;;;;4.70;1.85;;;;;;;;;;4997423;28;20026;-62
2021/05/02 03:32:35;;;;;;;2.10;1.10;;;;;;;;;;4997350;28;20027;-63
2021/05/02 03:35:03;;;;;;;5.10;1.58;;;;;;;;;;4997454;28;20157;-63
2021/05/02 03:37:32;;;;;;;2.35;1.00;;;;;;;;;;4997210;28;20482;-61
2021/05/02 03:39:58;;;;;;;8.25;1.38;;;;;;;;;;4996994;28;20049;-61
2021/05/02 03:42:24;;;;;;;6.05;1.33;;;;;;;;;;4997108;28;20026;-58
2021/05/02 03:44:51;;;;;;;4.70;1.50;;;;;;;;;;4997092;28;20490;-62
2021/05/02 03:47:17;;;;;;;6.70;1.40;;;;;;;;;;4996839;28;20046;-60
2021/05/02 03:49:45;;;;;;;4.45;1.58;;;;;;;;;;4997122;28;20490;-61
2021/05/02 03:52:15;;;;;;;3.58;1.42;;;;;;;;;;4997037;28;20034;-61
2021/05/02 03:54:41;;;;;;;4.22;1.48;;;;;;;;;;4979391;28;20077;-62
2021/05/02 03:57:09;;;;;;;4.18;1.25;;;;;;;;;;4996552;28;20035;-61
2021/05/02 03:59:35;;;;;;;3.10;1.30;;;;;;;;;;4996915;28;20022;-61
2021/05/02 04:02:02;;;;;;;7.25;1.42;;;;;;;;;;4971300;28;20037;-61
2021/05/02 04:04:33;;;;;;;6.35;1.58;;;;;;;;;;4968085;28;20023;-61
2021/05/02 04:06:59;;;;;;;2.47;1.33;;;;;;;;;;4959981;28;20125;-61
2021/05/02 04:09:26;;;;;;;4.95;1.42;;;;;;;;;;4957722;29;20404;-60
2021/05/02 04:11:52;;;;;;;4.80;1.17;;;;;;;;;;4957739;29;20042;-61
2021/05/02 04:14:20;;;;;;;4.95;1.27;;;;;;;;;;4957903;29;20023;-61
2021/05/02 04:17:01;;;;;;;2.92;1.38;;;;;;;;;;4965413;28;20031;-60
2021/05/02 04:19:28;;;;;;;3.90;1.40;;;;;;;;;;4967776;28;20031;-60
2021/05/02 04:21:54;;;;;;;3.63;1.17;;;;;;;;;;4960029;28;20504;-62
2021/05/02 04:24:21;;;;;;;3.05;1.40;;;;;;;;;;4957439;28;20443;-60
2021/05/02 04:26:48;;;;;;;3.83;1.30;;;;;;;;;;4957481;29;20059;-61
2021/05/02 04:29:15;;;;;;;5.55;1.77;;;;;;;;;;4957591;28;20114;-62
2021/05/02 04:31:41;;;;;;;5.88;1.52;;;;;;;;;;4964236;28;20428;-55
2021/05/02 04:34:07;;;;;;;5.32;1.50;;;;;;;;;;4965760;28;20030;-60
2021/05/02 04:36:33;;;;;;;7.05;1.80;;;;;;;;;;4962805;28;20063;-61
2021/05/02 04:39:00;;;;;;;4.05;1.73;;;;;;;;;;4957265;28;20078;-60
2021/05/02 04:41:26;;;;;;;5.00;1.67;;;;;;;;;;4957311;29;20027;-61
2021/05/02 04:43:53;;;;;;;4.60;1.75;;;;;;;;;;4957278;29;20380;-61
2021/05/02 04:46:19;;;;;;;5.22;1.65;;;;;;;;;;4956971;29;20042;-61
2021/05/02 04:48:45;;;;;;;8.10;2.17;;;;;;;;;;4957109;29;20497;-60
2021/05/02 04:51:12;;;;;;;8.48;1.90;;;;;;;;;;4957035;29;20107;-61
2021/05/02 04:53:38;;;;;;;6.55;2.00;;;;;;;;;;4956850;29;20023;-62
2021/05/02 04:56:04;;;;;;;5.47;2.25;;;;;;;;;;4956938;29;20050;-62
2021/05/02 04:58:35;;;;;;;5.88;2.03;;;;;;;;;;4956894;29;20472;-62
2021/05/02 05:01:01;;;;;;;3.70;1.98;;;;;;;;;;4956899;29;20510;-62
2021/05/02 05:03:28;;;;;;;6.35;2.60;;;;;;;;;;4939758;29;20028;-62
2021/05/02 05:05:56;;;;;;;6.28;2.70;;;;;;;;;;4956516;29;20058;-62
2021/05/02 05:08:22;;;;;;;8.40;3.40;;;;;;;;;;4955783;29;20034;-62
2021/05/02 05:10:48;;;;;;;11.40;4.85;;;;;;;;;;4956105;29;20065;-61
2021/05/02 05:13:14;;;;;;;10.77;4.13;;;;;;;;;;4955396;28;20027;-61
2021/05/02 05:15:41;;;;;;;7.50;3.78;;;;;;;;;;4955683;29;20027;-61
2021/05/02 05:18:07;;;;;;;8.27;3.33;;;;;;;;;;4955383;29;20035;-58
2021/05/02 05:20:33;;;;;;;6.97;2.50;;;;;;;;;;4955786;29;20039;-62
2021/05/02 05:22:59;;;;;;;4.60;2.50;;;;;;;;;;4955484;29;20106;-59
2021/05/02 05:25:25;;;;;;;9.00;3.05;;;;;;;;;;4955477;29;20443;-57
2021/05/02 05:27:51;;;;;;;8.40;2.65;;;;;;;;;;4955554;29;20090;-61
2021/05/02 05:30:17;;;;;;;6.13;2.80;;;;;;;;;;4955402;29;20066;-63
2021/05/02 05:32:43;;;;;;;7.65;2.97;;;;;;;;;;4955513;28;20034;-62
2021/05/02 05:35:10;;;;;;;10.90;2.80;;;;;;;;;;4955441;29;20030;-63
2021/05/02 05:37:36;;;;;;;6.10;2.35;;;;;;;;;;4955441;29;20063;-63
2021/05/02 05:40:02;;;;;;;6.65;2.33;;;;;;;;;;4955578;29;20480;-63
2021/05/02 05:42:28;;;;;;;8.52;2.47;;;;;;;;;;4955354;29;20066;-61
2021/05/02 05:44:54;;;;;;;8.95;2.30;;;;;;;;;;4955526;29;20028;-63
2021/05/02 05:47:26;;;;;;;8.98;2.15;;;;;;;;;;4955180;28;20036;-65
2021/05/02 05:49:52;;;;;;;6.40;2.05;;;;;;;;;;4955405;29;20023;-63
2021/05/02 05:52:18;;;;;;;9.07;2.40;;;;;;;;;;4955397;29;20103;-63
2021/05/02 05:54:44;;;;;;;10.15;2.60;;;;;;;;;;4955016;29;20439;-63
2021/05/02 05:57:10;;;;;;;6.32;2.63;;;;;;;;;;4954904;29;20027;-63
2021/05/02 05:59:36;;;;;;;6.13;2.70;;;;;;;;;;4955430;29;20023;-63
2021/05/02 06:02:03;;;;;;;10.90;3.47;;;;;;;;;;4955106;29;20028;-63
2021/05/02 06:04:31;;;;;;;9.35;3.28;;;;;;;;;;4954991;29;20392;-62
2021/05/02 06:06:57;;;;;;;6.60;2.88;;;;;;;;;;4930419;29;727460;-63
2021/05/02 06:09:23;;;;;;;7.32;2.78;;;;;;;;;;4956014;28;20035;-64
2021/05/02 06:11:50;;;;;;;9.75;3.30;;;;;;;;;;4955533;29;20483;-63
2021/05/02 06:14:19;;;;;;;12.30;3.10;;;;;;;;;;4955561;29;20023;-63
2021/05/02 06:16:45;;;;;;;10.18;2.45;;;;;;;;;;4955570;29;20501;-62
2021/05/02 06:19:11;;;;;;;8.50;2.30;;;;;;;;;;4955543;29;20122;-63
2021/05/02 06:21:40;;;;;;;5.72;2.53;;;;;;;;;;4955860;29;20443;-63
2021/05/02 06:24:07;;;;;;;9.55;2.58;;;;;;;;;;4954671;28;20459;-63
2021/05/02 06:26:33;;;;;;;6.97;2.40;;;;;;;;;;4955313;29;20023;-64
2021/05/02 06:29:00;;;;;;;8.52;2.45;;;;;;;;;;4955573;28;20387;-62
2021/05/02 06:31:26;;;;;;;10.18;2.67;;;;;;;;;;4955596;28;20098;-63
2021/05/02 06:33:52;;;;;;;7.32;2.90;;;;;;;;;;4955322;28;20394;-63
2021/05/02 06:36:18;;;;;;;11.35;3.10;;;;;;;;;;4955264;29;20023;-62
2021/05/02 06:38:44;;;;;;;12.20;3.22;;;;;;;;;;4955762;28;20078;-63
2021/05/02 06:41:10;;;;;;;9.60;3.28;;;;;;;;;;4955367;28;20027;-63
2021/05/02 06:43:36;;;;;;;11.55;3.05;;;;;;;;;;4955816;28;20034;-63
2021/05/02 06:46:03;;;;;;;10.57;2.50;;;;;;;;;;4955198;29;20028;-63
2021/05/02 06:48:29;;;;;;;11.38;2.72;;;;;;;;;;4955140;29;20050;-63
2021/05/02 06:50:57;;;;;;;10.38;3.83;;;;;;;;;;4955178;28;20172;-63
2021/05/02 06:53:23;;;;;;;17.45;9.13;;;;;;;;;;4955126;29;20028;-64
2021/05/02 06:55:49;;;;;;;44.80;24.70;;;;;;;;;;4955274;28;20090;-61
2021/05/02 06:58:15;;;;;;;17.88;8.98;;;;;;;;;;4963612;28;20032;-52
2021/05/02 07:00:43;;;;;;;24.08;14.57;;;;;;;;;;4963853;28;20019;-61
2021/05/02 07:03:09;;;;;;;26.67;13.30;;;;;;;;;;4965124;28;20049;-61
2021/05/02 07:05:35;;;;;;;16.33;6.60;;;;;;;;;;4963682;28;20102;-62
2021/05/02 07:08:02;;;;;;;14.27;7.50;;;;;;;;;;4963442;28;20046;-60
2021/05/02 07:10:30;;;;;;;13.00;6.18;;;;;;;;;;4965244;28;20356;-61
2021/05/02 07:12:56;;;;;;;32.75;18.58;;;;;;;;;;4963895;28;20495;-61
2021/05/02 07:15:25;;;;;;;15.63;5.95;;;;;;;;;;4965071;28;20054;-62
2021/05/02 07:17:51;;;;;;;27.80;15.73;;;;;;;;;;4954736;29;20024;-60
2021/05/02 07:20:18;;;;;;;42.15;23.77;;;;;;;;;;4954933;29;20031;-62
2021/05/02 07:22:51;;;;;;;14.63;4.40;;;;;;;;;;4954651;28;20032;-62
2021/05/02 07:25:18;;;;;;;18.27;6.80;;;;;;;;;;4955005;29;20023;-61
2021/05/02 07:27:47;;;;;;;14.85;6.25;;;;;;;;;;4954635;29;20510;-64
2021/05/02 07:30:13;;;;;;;23.90;10.45;;;;;;;;;;4954851;29;20156;-63
2021/05/02 07:32:39;;;;;;;18.02;6.97;;;;;;;;;;4960332;28;20031;-58
2021/05/02 07:35:08;;;;;;;13.88;4.63;;;;;;;;;;4963293;28;20021;-62
2021/05/02 07:37:34;;;;;;;19.73;8.65;;;;;;;;;;4967540;28;20030;-62
2021/05/02 07:40:00;;;;;;;28.88;13.73;;;;;;;;;;4966215;28;20106;-62
2021/05/02 07:42:26;;;;;;;22.17;9.30;;;;;;;;;;4966263;28;20038;-60
2021/05/02 07:44:53;;;;;;;17.80;6.80;;;;;;;;;;4967614;28;20094;-62
2021/05/02 07:47:19;;;;;;;10.77;5.20;;;;;;;;;;4965686;28;20061;-63
2021/05/02 07:49:45;;;;;;;19.55;10.65;;;;;;;;;;4966395;28;20027;-58
2021/05/02 07:52:11;;;;;;;20.17;9.57;;;;;;;;;;4967393;28;20038;-61
2021/05/02 07:54:38;;;;;;;17.88;5.70;;;;;;;;;;4965485;28;20027;-62
2021/05/02 07:57:05;;;;;;;20.48;5.47;;;;;;;;;;4966404;28;20022;-59
2021/05/02 07:59:31;;;;;;;19.45;6.43;;;;;;;;;;4967066;28;20144;-59
2021/05/02 08:01:57;;;;;;;17.23;5.82;;;;;;;;;;4965432;28;20030;-60
2021/05/02 08:04:23;;;;;;;12.02;3.25;;;;;;;;;;4966270;28;20482;-59
2021/05/02 08:06:50;;;;;;;13.73;3.50;;;;;;;;;;4964359;28;20043;-60
2021/05/02 08:09:18;;;;;;;13.73;3.75;;;;;;;;;;4970793;28;20062;-59
2021/05/02 08:11:45;;;;;;;19.27;6.70;;;;;;;;;;4966391;28;20014;-60
2021/05/02 08:14:11;;;;;;;16.38;4.97;;;;;;;;;;4966422;28;20391;-60
2021/05/02 08:16:37;;;;;;;16.23;5.68;;;;;;;;;;4964835;28;20023;-60
2021/05/02 08:19:03;;;;;;;27.95;15.35;;;;;;;;;;4966640;28;20035;-60
2021/05/02 08:21:29;;;;;;;27.92;14.38;;;;;;;;;;4965998;28;20054;-60
2021/05/02 08:23:55;;;;;;;21.92;11.05;;;;;;;;;;4965040;28;20030;-59
2021/05/02 08:26:21;;;;;;;42.95;25.27;;;;;;;;;;4966662;28;20046;-59
2021/05/02 08:28:47;;;;;;;71.05;45.03;;;;;;;;;;4965492;28;20035;-59
2021/05/02 08:31:14;;;;;;;28.77;14.85;;;;;;;;;;4965104;28;20051;-60
2021/05/02 08:33:40;;;;;;;26.77;10.25;;;;;;;;;;4959375;28;20031;-59
2021/05/02 08:36:06;;;;;;;23.85;9.35;;;;;;;;;;4957219;29;20379;-61
2021/05/02 08:38:35;;;;;;;29.05;13.60;;;;;;;;;;4961720;28;20027;-61
2021/05/02 08:41:02;;;;;;;16.60;3.65;;;;;;;;;;4965750;28;20025;-60
2021/05/02 08:43:29;;;;;;;31.75;15.95;;;;;;;;;;4972981;28;20069;-59
2021/05/02 08:45:55;;;;;;;39.70;22.00;;;;;;;;;;4976044;28;20027;-53
2021/05/02 08:48:22;;;;;;;33.83;20.75;;;;;;;;;;4975272;28;20038;-62
2021/05/02 08:50:50;;;;;;;82.82;51.40;;;;;;;;;;4976117;28;20030;-58
2021/05/02 08:53:18;;;;;;;23.25;9.68;;;;;;;;;;4976489;28;20034;-54
2021/05/02 08:55:46;;;;;;;40.05;21.25;;;;;;;;;;4976286;28;20402;-52
2021/05/02 08:58:18;;;;;;;47.53;29.65;;;;;;;;;;4976191;28;20035;-54
2021/05/02 09:00:47;;;;;;;64.57;36.42;;;;;;;;;;4975744;28;20026;-59
2021/05/02 09:03:13;;;;;;;101.28;77.15;;;;;;;;;;4975894;28;20031;-59
2021/05/02 09:05:49;;;;;;;38.13;16.60;;;;;;;;;;4975347;28;20026;-60
2021/05/02 09:08:31;;;;;;;12.95;3.97;;;;;;;;;;4978778;28;20097;-57
2021/05/02 09:10:57;;;;;;;25.52;11.50;;;;;;;;;;4972838;28;20023;-58
2021/05/02 09:13:24;;;;;;;34.10;22.17;;;;;;;;;;4975416;28;20027;-60
2021/05/02 09:16:00;;;;;;;26.55;12.75;;;;;;;;;;4975723;28;20019;-60
2021/05/02 09:18:34;;;;;;;48.03;33.72;;;;;;;;;;4975727;28;20117;-56
2021/05/02 09:21:00;;;;;;;16.38;4.97;;;;;;;;;;4975648;28;20019;-61
2021/05/02 09:23:36;;;;;;;15.10;3.95;;;;;;;;;;4975659;28;20035;-59
2021/05/02 09:26:04;;;;;;;20.35;5.32;;;;;;;;;;4975766;28;20027;-61
2021/05/02 09:29:09;;;;;;;17.23;4.38;;;;;;;;;;4968759;28;20034;-54
2021/05/02 09:31:38;;;;;;;15.90;4.03;;;;;;;;;;4879722;29;20480;-58
2021/05/02 09:34:14;;;;;;;31.27;11.00;;;;;;;;;;4879186;29;20047;-61
2021/05/02 09:37:15;;;;;;;24.10;5.57;;;;;;;;;;4879176;29;20040;-61
2021/05/02 09:39:46;;;;;;;22.75;5.15;;;;;;;;;;4805202;29;20038;-60
2021/05/02 09:42:25;;;;;;;21.05;4.55;;;;;;;;;;4804271;29;20188;-56
2021/05/02 09:44:54;;;;;;;21.20;10.27;;;;;;;;;;4804525;29;20061;-53
2021/05/02 09:47:30;;;;;;;23.80;8.80;;;;;;;;;;4797745;29;20132;-61
2021/05/02 09:50:02;;;;;;;32.85;12.32;;;;;;;;;;4788527;29;20119;-58
2021/05/02 09:52:48;;;;;;;47.30;26.08;;;;;;;;;;4804601;29;20133;-58
2021/05/02 09:55:25;;;;;;;33.10;10.23;;;;;;;;;;4801305;29;20038;-59
2021/05/02 09:57:55;;;;;;;43.78;10.93;;;;;;;;;;4800713;29;20042;-58
2021/05/02 10:00:28;;;;;;;37.97;9.97;;;;;;;;;;4797299;29;20468;-60
2021/05/02 10:02:55;;;;;;;16.50;5.22;;;;;;;;;;4839820;29;20152;-59
2021/05/02 10:05:22;;;;;;;35.80;11.55;;;;;;;;;;4857316;29;20559;-59
2021/05/02 10:07:48;;;;;;;25.25;4.93;;;;;;;;;;4855101;29;20049;-61
2021/05/02 10:10:15;;;;;;;19.63;4.70;;;;;;;;;;4856883;29;20556;-59
2021/05/02 10:12:41;;;;;;;25.80;11.60;;;;;;;;;;4860078;28;20030;-57
2021/05/02 10:15:08;;;;;;;41.92;23.88;;;;;;;;;;4944544;28;20138;-60
2021/05/02 10:17:35;;;;;;;36.67;9.35;;;;;;;;;;4944735;28;20035;-59
2021/05/02 10:20:01;;;;;;;28.30;6.13;;;;;;;;;;4944761;28;20346;-60
2021/05/02 10:22:30;;;;;;;23.55;5.40;;;;;;;;;;4944248;28;20069;-57
2021/05/02 10:24:56;;;;;;;27.27;11.88;;;;;;;;;;4945589;28;20524;-58
2021/05/02 10:27:23;;;;;;;30.48;10.55;;;;;;;;;;4945141;28;20475;-58
2021/05/02 10:29:50;;;;;;;31.83;6.85;;;;;;;;;;4944290;28;20642;-56
2021/05/02 10:32:19;;;;;;;26.35;8.85;;;;;;;;;;4944461;28;20090;-59
2021/05/02 10:34:50;;;;;;;51.70;34.22;;;;;;;;;;4944166;28;20110;-57
2021/05/02 10:37:23;;;;;;;54.20;27.15;;;;;;;;;;4944738;28;20458;-56
2021/05/02 10:39:56;;;;;;;31.08;7.93;;;;;;;;;;4944679;28;20097;-58
2021/05/02 10:42:34;;;;;;;36.85;17.00;;;;;;;;;;4945459;28;20905;-55
2021/05/02 10:45:18;;;;;;;19.52;5.15;;;;;;;;;;4944480;28;20035;-59
2021/05/02 10:47:44;;;;;;;39.78;14.60;;;;;;;;;;4944263;28;20407;-55
2021/05/02 10:50:24;;;;;;;56.00;34.53;;;;;;;;;;4944775;28;20031;-59
2021/05/02 10:53:03;;;;;;;31.48;12.80;;;;;;;;;;4944320;28;20358;-53
2021/05/02 10:55:48;;;;;;;24.45;9.40;;;;;;;;;;4944661;28;20087;-62
2021/05/02 10:58:24;;;;;;;22.73;7.38;;;;;;;;;;4944473;28;20038;-58
2021/05/02 11:00:59;;;;;;;38.80;15.07;;;;;;;;;;4944440;28;20041;-61
2021/05/02 11:03:38;;;;;;;34.03;14.13;;;;;;;;;;4945477;28;20023;-61
2021/05/02 11:06:07;;;;;;;19.77;5.65;;;;;;;;;;4944148;28;20024;-62
2021/05/02 11:08:46;;;;;;;33.65;10.73;;;;;;;;;;4946570;28;20533;-60
2021/05/02 11:11:34;;;;;;;35.72;13.20;;;;;;;;;;4946582;28;20043;-58
2021/05/02 11:16:35;;;;;;;18.17;4.80;;;;;;;;;;4949187;28;20530;-58
2021/05/02 11:19:02;;;;;;;24.02;4.82;;;;;;;;;;4948103;28;20755;-58
2021/05/02 11:21:51;;;;;;;14.40;4.45;;;;;;;;;;4949109;28;20546;-59
2021/05/02 11:24:19;;;;;;;18.90;5.65;;;;;;;;;;4947806;28;20077;-61
2021/05/02 11:29:49;;;;;;;17.17;4.90;;;;;;;;;;4899834;29;20108;-56
2021/05/02 11:32:30;;;;;;;21.30;6.68;;;;;;;;;;4900431;29;20040;-59
2021/05/02 11:34:58;;;;;;;17.63;8.65;;;;;;;;;;4899914;29;20064;-62
2021/05/02 11:37:48;;;;;;;21.15;7.03;;;;;;;;;;4900187;29;20772;-60
2021/05/02 11:40:30;;;;;;;25.75;6.78;;;;;;;;;;4899728;29;20040;-62
2021/05/02 11:43:12;;;;;;;17.30;6.75;;;;;;;;;;4899378;29;20035;-62
2021/05/02 11:45:42;;;;;;;19.95;7.70;;;;;;;;;;4900251;29;20714;-55
2021/05/02 11:48:09;;;;;;;24.55;8.02;;;;;;;;;;4899674;29;20080;-61
2021/05/02 11:50:39;;;;;;;19.27;5.10;;;;;;;;;;4900457;29;20095;-61
2021/05/02 11:53:05;;;;;;;16.75;4.15;;;;;;;;;;4899775;29;20150;-63
2021/05/02 11:55:36;;;;;;;12.55;4.30;;;;;;;;;;4900094;29;20028;-62
2021/05/02 11:58:11;;;;;;;19.60;8.95;;;;;;;;;;4899745;29;20032;-59
2021/05/02 12:00:52;;;;;;;18.17;5.00;;;;;;;;;;4899650;29;20111;-57
2021/05/02 12:03:39;;;;;;;19.17;4.32;;;;;;;;;;4899266;29;20106;-57
2021/05/02 12:06:05;;;;;;;18.05;5.15;;;;;;;;;;4907641;28;20146;-60
2021/05/02 12:08:32;;;;;;;22.42;4.40;;;;;;;;;;4946873;28;20479;-61
2021/05/02 12:10:58;;;;;;;18.58;4.60;;;;;;;;;;4947528;28;20022;-58
2021/05/02 12:13:30;;;;;;;24.15;8.63;;;;;;;;;;4947416;28;20027;-62
2021/05/02 12:16:00;;;;;;;27.90;10.68;;;;;;;;;;4946737;28;20145;-61
2021/05/02 12:18:40;;;;;;;22.52;7.78;;;;;;;;;;4948350;28;20038;-60
2021/05/02 12:21:06;;;;;;;;;;;;;;;;;;4947894;28;20019;-58
2021/05/02 12:23:32;;;;;;;21.88;4.50;;;;;;;;;;4946195;28;19917;-60
2021/05/02 12:26:11;;;;;;;18.63;4.10;;;;;;;;;;4946698;28;20570;-62
2021/05/02 12:28:38;;;;;;;17.15;4.20;;;;;;;;;;4946679;28;20035;-62
2021/05/02 12:31:07;;;;;;;15.63;3.47;;;;;;;;;;4947877;28;20091;-59
2021/05/02 12:33:37;;;;;;;29.98;6.03;;;;;;;;;;4947783;28;20164;-62
2021/05/02 12:36:07;;;;;;;25.20;5.47;;;;;;;;;;4946810;28;20019;-58
2021/05/02 12:38:33;;;;;;;24.05;5.70;;;;;;;;;;4946608;28;20422;-61
2021/05/02 12:40:59;;;;;;;29.70;5.63;;;;;;;;;;4946981;28;20114;-63
2021/05/02 12:43:29;;;;;;;23.23;5.38;;;;;;;;;;4946714;28;20039;-61
2021/05/02 12:45:56;;;;;;;23.15;4.63;;;;;;;;;;4943937;28;20031;-59
2021/05/02 12:48:28;;;;;;;19.50;5.13;;;;;;;;;;4946141;28;20062;-59
2021/05/02 12:50:59;;;;;;;27.45;5.82;;;;;;;;;;4946355;28;20085;-60
2021/05/02 12:53:25;;;;;;;;;;;;;;;;;;4946601;28;20510;-58
2021/05/02 12:55:55;;;;;;;19.05;5.18;;;;;;;;;;4946104;28;19952;-60
2021/05/02 12:58:39;;;;;;;24.15;4.57;;;;;;;;;;4947304;28;20118;-60
2021/05/02 13:01:12;;;;;;;23.55;4.78;;;;;;;;;;4947368;28;20589;-60
2021/05/02 13:03:43;;;;;;;19.75;4.25;;;;;;;;;;4945879;28;20042;-60
2021/05/02 13:06:15;;;;;;;19.98;4.65;;;;;;;;;;4945931;28;20074;-58
2021/05/02 13:08:52;;;;;;;24.83;4.55;;;;;;;;;;4945926;28;20077;-60
2021/05/02 13:11:38;;;;;;;24.02;4.20;;;;;;;;;;4947014;28;20033;-58
2021/05/02 13:14:16;;;;;;;13.82;3.72;;;;;;;;;;4945856;28;20034;-60
2021/05/02 13:16:42;;;;;;;20.20;4.32;;;;;;;;;;4946729;28;20346;-61
2021/05/02 13:19:22;;;;;;;16.10;3.78;;;;;;;;;;4945988;28;20030;-61
2021/05/02 13:21:48;;;;;;;19.23;3.22;;;;;;;;;;4946882;28;20023;-61
2021/05/02 13:24:14;;;;;;;15.80;2.97;;;;;;;;;;4946776;28;20023;-61
2021/05/02 13:26:41;;;;;;;11.95;2.55;;;;;;;;;;4945755;28;20062;-61
2021/05/02 13:29:13;;;;;;;17.80;4.85;;;;;;;;;;4945725;28;20066;-60
2021/05/02 13:31:54;;;;;;;13.35;3.38;;;;;;;;;;4945776;28;20019;-61
2021/05/02 13:34:22;;;;;;;23.90;4.22;;;;;;;;;;4945040;28;20058;-60
2021/05/02 13:36:48;;;;;;;19.08;3.72;;;;;;;;;;4945587;28;20098;-60
2021/05/02 13:39:17;;;;;;;17.23;3.83;;;;;;;;;;4945242;28;20027;-54
2021/05/02 13:41:43;;;;;;;20.35;3.80;;;;;;;;;;4947269;28;20113;-53
2021/05/02 13:44:11;;;;;;;25.52;9.70;;;;;;;;;;4945254;28;20031;-56
2021/05/02 13:46:37;;;;;;;34.42;15.43;;;;;;;;;;4945215;28;20030;-55
2021/05/02 13:49:03;;;;;;;22.13;4.40;;;;;;;;;;4945628;28;20035;-53
2021/05/02 13:51:30;;;;;;;25.75;4.90;;;;;;;;;;4944929;28;20015;-61
2021/05/02 13:53:56;;;;;;;20.48;5.13;;;;;;;;;;4946464;28;20034;-54
2021/05/02 13:56:23;;;;;;;22.08;8.70;;;;;;;;;;4945355;28;20072;-57
2021/05/02 13:58:52;;;;;;;22.85;8.40;;;;;;;;;;4946312;28;20394;-61
2021/05/02 14:01:19;;;;;;;32.78;14.18;;;;;;;;;;4944865;28;20035;-61
2021/05/02 14:03:45;;;;;;;15.10;4.65;;;;;;;;;;4945055;28;20028;-64
2021/05/02 14:06:14;;;;;;;23.30;11.45;;;;;;;;;;4944858;28;20093;-62
2021/05/02 14:08:40;;;;;;;54.55;29.33;;;;;;;;;;4944788;28;20140;-57
2021/05/02 14:11:08;;;;;;;22.08;7.07;;;;;;;;;;4945988;28;20585;-55
2021/05/02 14:13:36;;;;;;;29.90;6.53;;;;;;;;;;4981146;28;20511;-60
2021/05/02 14:16:03;;;;;;;31.38;10.55;;;;;;;;;;4994174;28;20384;-62
2021/05/02 14:18:31;;;;;;;17.25;6.10;;;;;;;;;;4976792;28;20038;-60
2021/05/02 14:20:57;;;;;;;24.52;7.53;;;;;;;;;;4994071;28;20488;-63
2021/05/02 14:23:23;;;;;;;25.00;9.15;;;;;;;;;;4994356;28;20027;-63
2021/05/02 14:25:52;;;;;;;25.48;11.00;;;;;;;;;;4994181;28;20077;-64
2021/05/02 14:28:19;;;;;;;12.98;4.35;;;;;;;;;;4993936;28;20035;-64
2021/05/02 14:30:45;;;;;;;14.20;2.53;;;;;;;;;;4994099;28;20031;-64
2021/05/02 14:33:12;;;;;;;12.63;3.50;;;;;;;;;;4994035;28;20034;-64
2021/05/02 14:35:38;;;;;;;13.88;3.20;;;;;;;;;;4993947;28;20022;-63
2021/05/02 14:38:05;;;;;;;19.25;5.97;;;;;;;;;;4994130;28;20453;-63
2021/05/02 14:40:31;;;;;;;10.43;2.65;;;;;;;;;;4993750;28;20030;-64
2021/05/02 14:42:58;;;;;;;16.63;3.45;;;;;;;;;;4993809;28;20485;-63
2021/05/02 14:45:24;;;;;;;25.73;8.77;;;;;;;;;;4993320;28;20133;-64
2021/05/02 14:47:50;;;;;;;25.65;6.05;;;;;;;;;;4994089;28;20370;-62